sensor_id;sensor_type;location;lat;lon;timestamp;temperature;humidity
76168;DHT22;64927;48.214;16.378;2023-12-04T00:01:43;0.40;65.60
76168;DHT22;64927;48.214;16.378;2023-12-04T00:04:12;0.40;65.70
76168;DHT22;64927;48.214;16.378;2023-12-04T00:06:38;0.40;66.10
76168;DHT22;64927;48.214;16.378;2023-12-04T00:09:03;0.40;66.40
76168;DHT22;64927;48.214;16.378;2023-12-04T00:11:32;0.50;66.80
76168;DHT22;64927;48.214;16.378;2023-12-04T00:13:58;0.40;66.20
76168;DHT22;64927;48.214;16.378;2023-12-04T00:16:24;0.40;66.30
76168;DHT22;64927;48.214;16.378;2023-12-04T00:18:52;0.40;66.70
76168;DHT22;64927;48.214;16.378;2023-12-04T00:21:18;0.40;66.40
76168;DHT22;64927;48.214;16.378;2023-12-04T00:23:45;0.50;66.70
76168;DHT22;64927;48.214;16.378;2023-12-04T00:26:15;0.50;66.30
76168;DHT22;64927;48.214;16.378;2023-12-04T00:28:45;0.50;66.60
76168;DHT22;64927;48.214;16.378;2023-12-04T00:31:10;0.40;66.20
76168;DHT22;64927;48.214;16.378;2023-12-04T00:33:38;0.20;67.60
76168;DHT22;64927;48.214;16.378;2023-12-04T00:36:04;0.00;69.20
76168;DHT22;64927;48.214;16.378;2023-12-04T00:38:30;-0.20;70.00
76168;DHT22;64927;48.214;16.378;2023-12-04T00:40:56;-0.30;70.70
76168;DHT22;64927;48.214;16.378;2023-12-04T00:43:21;-0.30;70.90
76168;DHT22;64927;48.214;16.378;2023-12-04T00:45:49;-0.20;70.40
76168;DHT22;64927;48.214;16.378;2023-12-04T00:48:14;0.00;70.00
76168;DHT22;64927;48.214;16.378;2023-12-04T00:50:42;0.10;70.30
76168;DHT22;64927;48.214;16.378;2023-12-04T00:53:08;0.00;70.30
76168;DHT22;64927;48.214;16.378;2023-12-04T00:55:34;0.10;69.90
76168;DHT22;64927;48.214;16.378;2023-12-04T00:58:01;0.10;69.90
76168;DHT22;64927;48.214;16.378;2023-12-04T01:00:28;0.00;69.80
76168;DHT22;64927;48.214;16.378;2023-12-04T01:02:56;-0.10;70.20
76168;DHT22;64927;48.214;16.378;2023-12-04T01:05:23;-0.30;70.80
76168;DHT22;64927;48.214;16.378;2023-12-04T01:07:49;-0.40;71.20
76168;DHT22;64927;48.214;16.378;2023-12-04T01:10:15;-0.50;71.50
76168;DHT22;64927;48.214;16.378;2023-12-04T01:12:40;-0.50;71.90
76168;DHT22;64927;48.214;16.378;2023-12-04T01:15:06;-0.50;72.10
76168;DHT22;64927;48.214;16.378;2023-12-04T01:17:32;-0.40;72.00
76168;DHT22;64927;48.214;16.378;2023-12-04T01:19:57;-0.50;72.20
76168;DHT22;64927;48.214;16.378;2023-12-04T01:22:25;-0.60;72.90
76168;DHT22;64927;48.214;16.378;2023-12-04T01:24:53;-0.70;73.20
76168;DHT22;64927;48.214;16.378;2023-12-04T01:27:21;-0.70;73.20
76168;DHT22;64927;48.214;16.378;2023-12-04T01:29:47;-0.70;73.60
76168;DHT22;64927;48.214;16.378;2023-12-04T01:32:12;-0.70;73.20
76168;DHT22;64927;48.214;16.378;2023-12-04T01:34:38;-0.80;73.30
76168;DHT22;64927;48.214;16.378;2023-12-04T01:37:06;-0.70;73.00
76168;DHT22;64927;48.214;16.378;2023-12-04T01:39:31;-0.70;72.80
76168;DHT22;64927;48.214;16.378;2023-12-04T01:41:57;-0.70;72.00
76168;DHT22;64927;48.214;16.378;2023-12-04T01:44:23;-0.80;71.70
76168;DHT22;64927;48.214;16.378;2023-12-04T01:46:49;-0.80;72.10
76168;DHT22;64927;48.214;16.378;2023-12-04T01:49:15;-0.60;72.30
76168;DHT22;64927;48.214;16.378;2023-12-04T01:51:40;-0.50;72.20
76168;DHT22;64927;48.214;16.378;2023-12-04T01:54:07;-0.40;71.10
76168;DHT22;64927;48.214;16.378;2023-12-04T01:56:34;-0.50;70.00
76168;DHT22;64927;48.214;16.378;2023-12-04T01:59:01;-0.50;70.70
76168;DHT22;64927;48.214;16.378;2023-12-04T02:01:27;-0.60;70.80
76168;DHT22;64927;48.214;16.378;2023-12-04T02:03:54;-0.50;71.30
76168;DHT22;64927;48.214;16.378;2023-12-04T02:06:20;-0.30;71.50
76168;DHT22;64927;48.214;16.378;2023-12-04T02:08:48;-0.30;70.80
76168;DHT22;64927;48.214;16.378;2023-12-04T02:11:14;-0.30;70.80
76168;DHT22;64927;48.214;16.378;2023-12-04T02:13:44;-0.50;70.00
76168;DHT22;64927;48.214;16.378;2023-12-04T02:16:11;-0.50;70.30
76168;DHT22;64927;48.214;16.378;2023-12-04T02:18:38;-0.60;70.50
76168;DHT22;64927;48.214;16.378;2023-12-04T02:21:05;-0.80;70.90
76168;DHT22;64927;48.214;16.378;2023-12-04T02:23:33;-0.80;70.80
76168;DHT22;64927;48.214;16.378;2023-12-04T02:26:01;-0.90;71.00
76168;DHT22;64927;48.214;16.378;2023-12-04T02:28:33;-1.00;70.90
76168;DHT22;64927;48.214;16.378;2023-12-04T02:30:59;-1.20;72.50
76168;DHT22;64927;48.214;16.378;2023-12-04T02:33:27;-1.20;72.50
76168;DHT22;64927;48.214;16.378;2023-12-04T02:35:55;-1.40;72.40
76168;DHT22;64927;48.214;16.378;2023-12-04T02:38:21;-1.50;72.90
76168;DHT22;64927;48.214;16.378;2023-12-04T02:40:52;-1.50;73.20
76168;DHT22;64927;48.214;16.378;2023-12-04T02:43:18;-1.40;72.70
76168;DHT22;64927;48.214;16.378;2023-12-04T02:45:46;-1.40;72.40
76168;DHT22;64927;48.214;16.378;2023-12-04T02:48:11;-1.40;72.40
76168;DHT22;64927;48.214;16.378;2023-12-04T02:50:37;-1.40;72.20
76168;DHT22;64927;48.214;16.378;2023-12-04T02:53:05;-1.40;72.40
76168;DHT22;64927;48.214;16.378;2023-12-04T02:55:30;-1.40;72.20
76168;DHT22;64927;48.214;16.378;2023-12-04T02:57:56;-1.40;72.30
76168;DHT22;64927;48.214;16.378;2023-12-04T03:00:22;-1.40;72.00
76168;DHT22;64927;48.214;16.378;2023-12-04T03:02:47;-1.20;71.80
76168;DHT22;64927;48.214;16.378;2023-12-04T03:05:15;-1.20;71.50
76168;DHT22;64927;48.214;16.378;2023-12-04T03:07:40;-1.30;71.40
76168;DHT22;64927;48.214;16.378;2023-12-04T03:10:06;-1.30;71.30
76168;DHT22;64927;48.214;16.378;2023-12-04T03:12:32;-1.30;71.10
76168;DHT22;64927;48.214;16.378;2023-12-04T03:15:00;-1.40;71.50
76168;DHT22;64927;48.214;16.378;2023-12-04T03:17:26;-1.40;71.80
76168;DHT22;64927;48.214;16.378;2023-12-04T03:19:53;-1.40;72.30
76168;DHT22;64927;48.214;16.378;2023-12-04T03:22:19;-1.30;72.00
76168;DHT22;64927;48.214;16.378;2023-12-04T03:24:47;-1.30;71.90
76168;DHT22;64927;48.214;16.378;2023-12-04T03:27:12;-1.30;72.10
76168;DHT22;64927;48.214;16.378;2023-12-04T03:29:38;-1.40;71.20
76168;DHT22;64927;48.214;16.378;2023-12-04T03:32:04;-1.40;71.30
76168;DHT22;64927;48.214;16.378;2023-12-04T03:34:31;-1.40;71.80
76168;DHT22;64927;48.214;16.378;2023-12-04T03:36:59;-1.30;72.40
76168;DHT22;64927;48.214;16.378;2023-12-04T03:39:25;-1.30;71.90
76168;DHT22;64927;48.214;16.378;2023-12-04T03:41:50;-1.30;72.00
76168;DHT22;64927;48.214;16.378;2023-12-04T03:44:16;-1.20;71.80
76168;DHT22;64927;48.214;16.378;2023-12-04T03:46:42;-1.20;72.40
76168;DHT22;64927;48.214;16.378;2023-12-04T03:49:07;-1.30;71.30
76168;DHT22;64927;48.214;16.378;2023-12-04T03:51:33;-1.40;71.30
76168;DHT22;64927;48.214;16.378;2023-12-04T03:53:58;-1.50;71.80
76168;DHT22;64927;48.214;16.378;2023-12-04T03:56:24;-1.50;71.80
76168;DHT22;64927;48.214;16.378;2023-12-04T03:58:52;-1.50;72.10
76168;DHT22;64927;48.214;16.378;2023-12-04T04:01:17;-1.70;71.40
76168;DHT22;64927;48.214;16.378;2023-12-04T04:03:45;-1.90;72.50
76168;DHT22;64927;48.214;16.378;2023-12-04T04:06:11;-2.00;73.30
76168;DHT22;64927;48.214;16.378;2023-12-04T04:08:37;-2.10;73.20
76168;DHT22;64927;48.214;16.378;2023-12-04T04:11:02;-2.10;74.30
76168;DHT22;64927;48.214;16.378;2023-12-04T04:13:34;-2.10;73.60
76168;DHT22;64927;48.214;16.378;2023-12-04T04:15:59;-2.00;74.00
76168;DHT22;64927;48.214;16.378;2023-12-04T04:18:25;-2.00;74.00
76168;DHT22;64927;48.214;16.378;2023-12-04T04:20:51;-2.00;73.90
76168;DHT22;64927;48.214;16.378;2023-12-04T04:23:16;-2.00;73.90
76168;DHT22;64927;48.214;16.378;2023-12-04T04:25:42;-2.00;73.30
76168;DHT22;64927;48.214;16.378;2023-12-04T04:28:07;-2.00;73.50
76168;DHT22;64927;48.214;16.378;2023-12-04T04:30:33;-2.00;73.20
76168;DHT22;64927;48.214;16.378;2023-12-04T04:33:03;-2.00;73.20
76168;DHT22;64927;48.214;16.378;2023-12-04T04:35:30;-2.10;72.90
76168;DHT22;64927;48.214;16.378;2023-12-04T04:37:55;-2.20;73.60
76168;DHT22;64927;48.214;16.378;2023-12-04T04:40:21;-2.20;74.10
76168;DHT22;64927;48.214;16.378;2023-12-04T04:42:46;-2.10;74.40
76168;DHT22;64927;48.214;16.378;2023-12-04T04:45:12;-1.90;74.10
76168;DHT22;64927;48.214;16.378;2023-12-04T04:47:40;-1.80;73.90
76168;DHT22;64927;48.214;16.378;2023-12-04T04:50:08;-1.70;73.40
76168;DHT22;64927;48.214;16.378;2023-12-04T04:52:34;-1.80;72.50
76168;DHT22;64927;48.214;16.378;2023-12-04T04:55:02;-1.90;72.80
76168;DHT22;64927;48.214;16.378;2023-12-04T04:57:32;-2.10;73.00
76168;DHT22;64927;48.214;16.378;2023-12-04T05:00:00;-2.30;74.10
76168;DHT22;64927;48.214;16.378;2023-12-04T05:02:25;-2.20;74.50
76168;DHT22;64927;48.214;16.378;2023-12-04T05:04:51;-2.30;74.10
76168;DHT22;64927;48.214;16.378;2023-12-04T05:07:16;-2.40;74.50
76168;DHT22;64927;48.214;16.378;2023-12-04T05:09:42;-2.50;74.80
76168;DHT22;64927;48.214;16.378;2023-12-04T05:12:08;-2.30;74.70
76168;DHT22;64927;48.214;16.378;2023-12-04T05:14:33;-2.30;74.20
76168;DHT22;64927;48.214;16.378;2023-12-04T05:16:59;-2.40;74.70
76168;DHT22;64927;48.214;16.378;2023-12-04T05:19:25;-2.40;74.80
76168;DHT22;64927;48.214;16.378;2023-12-04T05:21:50;-2.50;75.00
76168;DHT22;64927;48.214;16.378;2023-12-04T05:24:16;-2.40;75.10
76168;DHT22;64927;48.214;16.378;2023-12-04T05:26:41;-2.30;75.00
76168;DHT22;64927;48.214;16.378;2023-12-04T05:29:07;-2.30;74.90
76168;DHT22;64927;48.214;16.378;2023-12-04T05:31:35;-2.00;75.20
76168;DHT22;64927;48.214;16.378;2023-12-04T05:34:01;-2.00;74.00
76168;DHT22;64927;48.214;16.378;2023-12-04T05:36:27;-2.00;73.50
76168;DHT22;64927;48.214;16.378;2023-12-04T05:38:55;-2.10;74.20
76168;DHT22;64927;48.214;16.378;2023-12-04T05:41:23;-2.20;73.30
76168;DHT22;64927;48.214;16.378;2023-12-04T05:43:48;-2.20;73.60
76168;DHT22;64927;48.214;16.378;2023-12-04T05:46:17;-2.40;74.20
76168;DHT22;64927;48.214;16.378;2023-12-04T05:48:42;-2.40;74.40
76168;DHT22;64927;48.214;16.378;2023-12-04T05:51:09;-2.40;74.50
76168;DHT22;64927;48.214;16.378;2023-12-04T05:53:35;-2.30;74.80
76168;DHT22;64927;48.214;16.378;2023-12-04T05:56:01;-2.30;73.90
76168;DHT22;64927;48.214;16.378;2023-12-04T05:58:29;-2.30;74.00
76168;DHT22;64927;48.214;16.378;2023-12-04T06:00:54;-2.20;73.60
76168;DHT22;64927;48.214;16.378;2023-12-04T06:03:20;-2.10;73.20
76168;DHT22;64927;48.214;16.378;2023-12-04T06:05:47;-2.10;72.80
76168;DHT22;64927;48.214;16.378;2023-12-04T06:08:16;-2.20;72.80
76168;DHT22;64927;48.214;16.378;2023-12-04T06:10:42;-2.20;73.10
76168;DHT22;64927;48.214;16.378;2023-12-04T06:13:07;-2.10;72.80
76168;DHT22;64927;48.214;16.378;2023-12-04T06:15:33;-2.10;73.00
76168;DHT22;64927;48.214;16.378;2023-12-04T06:17:58;-2.00;73.20
76168;DHT22;64927;48.214;16.378;2023-12-04T06:20:26;-2.10;72.00
76168;DHT22;64927;48.214;16.378;2023-12-04T06:22:55;-2.30;72.80
76168;DHT22;64927;48.214;16.378;2023-12-04T06:25:21;-2.40;73.50
76168;DHT22;64927;48.214;16.378;2023-12-04T06:27:49;-2.40;73.80
76168;DHT22;64927;48.214;16.378;2023-12-04T06:30:19;-2.50;73.60
76168;DHT22;64927;48.214;16.378;2023-12-04T06:32:45;-2.40;74.20
76168;DHT22;64927;48.214;16.378;2023-12-04T06:35:11;-2.20;74.30
76168;DHT22;64927;48.214;16.378;2023-12-04T06:37:38;-2.10;73.70
76168;DHT22;64927;48.214;16.378;2023-12-04T06:40:09;-1.90;73.80
76168;DHT22;64927;48.214;16.378;2023-12-04T06:42:37;-1.80;73.40
76168;DHT22;64927;48.214;16.378;2023-12-04T06:45:06;-1.70;72.50
76168;DHT22;64927;48.214;16.378;2023-12-04T06:47:34;-1.70;71.80
76168;DHT22;64927;48.214;16.378;2023-12-04T06:50:02;-1.90;70.80
76168;DHT22;64927;48.214;16.378;2023-12-04T06:52:28;-1.90;71.20
76168;DHT22;64927;48.214;16.378;2023-12-04T06:54:56;-2.00;71.20
76168;DHT22;64927;48.214;16.378;2023-12-04T06:57:22;-2.30;71.30
76168;DHT22;64927;48.214;16.378;2023-12-04T06:59:47;-2.50;71.60
76168;DHT22;64927;48.214;16.378;2023-12-04T07:02:13;-2.60;72.20
76168;DHT22;64927;48.214;16.378;2023-12-04T07:04:41;-2.80;72.50
76168;DHT22;64927;48.214;16.378;2023-12-04T07:07:09;-2.80;73.70
76168;DHT22;64927;48.214;16.378;2023-12-04T07:09:34;-2.70;73.20
76168;DHT22;64927;48.214;16.378;2023-12-04T07:12:03;-2.50;72.90
76168;DHT22;64927;48.214;16.378;2023-12-04T07:14:31;-2.40;73.10
76168;DHT22;64927;48.214;16.378;2023-12-04T07:16:56;-2.50;71.00
76168;DHT22;64927;48.214;16.378;2023-12-04T07:19:24;-2.50;71.40
76168;DHT22;64927;48.214;16.378;2023-12-04T07:21:53;-2.40;71.90
76168;DHT22;64927;48.214;16.378;2023-12-04T07:24:21;-2.30;71.70
76168;DHT22;64927;48.214;16.378;2023-12-04T07:26:47;-2.40;71.20
76168;DHT22;64927;48.214;16.378;2023-12-04T07:29:12;-2.40;71.80
76168;DHT22;64927;48.214;16.378;2023-12-04T07:31:41;-2.30;72.00
76168;DHT22;64927;48.214;16.378;2023-12-04T07:34:06;-2.20;71.80
76168;DHT22;64927;48.214;16.378;2023-12-04T07:36:32;-2.20;71.40
76168;DHT22;64927;48.214;16.378;2023-12-04T07:38:58;-2.10;71.30
76168;DHT22;64927;48.214;16.378;2023-12-04T07:41:23;-2.10;70.50
76168;DHT22;64927;48.214;16.378;2023-12-04T07:43:49;-2.20;70.00
76168;DHT22;64927;48.214;16.378;2023-12-04T07:46:15;-2.20;71.10
76168;DHT22;64927;48.214;16.378;2023-12-04T07:48:43;-2.30;70.90
76168;DHT22;64927;48.214;16.378;2023-12-04T07:51:12;-2.40;71.20
76168;DHT22;64927;48.214;16.378;2023-12-04T07:53:37;-2.30;72.70
76168;DHT22;64927;48.214;16.378;2023-12-04T07:56:04;-2.20;71.60
76168;DHT22;64927;48.214;16.378;2023-12-04T07:58:30;-2.10;71.50
76168;DHT22;64927;48.214;16.378;2023-12-04T08:00:57;-2.00;71.70
76168;DHT22;64927;48.214;16.378;2023-12-04T08:03:22;-1.90;71.40
76168;DHT22;64927;48.214;16.378;2023-12-04T08:05:50;-1.80;70.30
76168;DHT22;64927;48.214;16.378;2023-12-04T08:08:16;-1.80;70.20
76168;DHT22;64927;48.214;16.378;2023-12-04T08:10:41;-1.70;70.20
76168;DHT22;64927;48.214;16.378;2023-12-04T08:13:07;-1.80;70.20
76168;DHT22;64927;48.214;16.378;2023-12-04T08:15:35;-1.80;70.50
76168;DHT22;64927;48.214;16.378;2023-12-04T08:18:03;-1.90;71.10
76168;DHT22;64927;48.214;16.378;2023-12-04T08:20:31;-1.90;71.10
76168;DHT22;64927;48.214;16.378;2023-12-04T08:22:59;-2.00;71.40
76168;DHT22;64927;48.214;16.378;2023-12-04T08:25:27;-2.00;71.60
76168;DHT22;64927;48.214;16.378;2023-12-04T08:27:52;-2.00;71.80
76168;DHT22;64927;48.214;16.378;2023-12-04T08:30:18;-2.00;71.60
76168;DHT22;64927;48.214;16.378;2023-12-04T08:32:46;-1.90;71.90
76168;DHT22;64927;48.214;16.378;2023-12-04T08:35:12;-1.80;71.50
76168;DHT22;64927;48.214;16.378;2023-12-04T08:37:38;-1.80;70.80
76168;DHT22;64927;48.214;16.378;2023-12-04T08:40:04;-1.70;71.40
76168;DHT22;64927;48.214;16.378;2023-12-04T08:42:30;-1.60;70.70
76168;DHT22;64927;48.214;16.378;2023-12-04T08:44:58;-1.60;70.40
76168;DHT22;64927;48.214;16.378;2023-12-04T08:47:23;-1.60;70.00
76168;DHT22;64927;48.214;16.378;2023-12-04T08:49:49;-1.60;70.00
76168;DHT22;64927;48.214;16.378;2023-12-04T08:52:15;-1.70;70.70
76168;DHT22;64927;48.214;16.378;2023-12-04T08:54:40;-1.70;71.60
76168;DHT22;64927;48.214;16.378;2023-12-04T08:57:07;-1.30;71.30
76168;DHT22;64927;48.214;16.378;2023-12-04T08:59:33;-1.30;69.60
76168;DHT22;64927;48.214;16.378;2023-12-04T09:01:58;-1.30;70.30
76168;DHT22;64927;48.214;16.378;2023-12-04T09:04:26;-1.30;70.30
76168;DHT22;64927;48.214;16.378;2023-12-04T09:06:52;-1.20;70.00
76168;DHT22;64927;48.214;16.378;2023-12-04T09:09:17;-1.20;70.30
76168;DHT22;64927;48.214;16.378;2023-12-04T09:11:44;-1.10;69.50
76168;DHT22;64927;48.214;16.378;2023-12-04T09:14:09;-1.10;69.40
76168;DHT22;64927;48.214;16.378;2023-12-04T09:16:35;-1.20;70.30
76168;DHT22;64927;48.214;16.378;2023-12-04T09:19:03;-1.20;70.80
76168;DHT22;64927;48.214;16.378;2023-12-04T09:21:29;-1.00;72.00
76168;DHT22;64927;48.214;16.378;2023-12-04T09:23:54;-1.10;69.10
76168;DHT22;64927;48.214;16.378;2023-12-04T09:26:20;-1.10;70.30
76168;DHT22;64927;48.214;16.378;2023-12-04T09:28:45;-1.00;69.60
76168;DHT22;64927;48.214;16.378;2023-12-04T09:31:11;-1.20;70.50
76168;DHT22;64927;48.214;16.378;2023-12-04T09:33:37;-1.00;71.70
76168;DHT22;64927;48.214;16.378;2023-12-04T09:36:03;-0.80;69.90
76168;DHT22;64927;48.214;16.378;2023-12-04T09:38:29;-0.60;69.30
76168;DHT22;64927;48.214;16.378;2023-12-04T09:40:59;-0.70;69.60
76168;DHT22;64927;48.214;16.378;2023-12-04T09:43:26;-0.50;69.20
76168;DHT22;64927;48.214;16.378;2023-12-04T09:45:53;-0.60;69.50
76168;DHT22;64927;48.214;16.378;2023-12-04T09:48:20;-0.70;69.60
76168;DHT22;64927;48.214;16.378;2023-12-04T09:50:47;-0.90;69.20
76168;DHT22;64927;48.214;16.378;2023-12-04T09:53:13;-0.70;70.20
76168;DHT22;64927;48.214;16.378;2023-12-04T09:55:39;-0.70;69.40
76168;DHT22;64927;48.214;16.378;2023-12-04T09:58:05;-0.70;69.60
76168;DHT22;64927;48.214;16.378;2023-12-04T10:00:32;-0.50;69.60
76168;DHT22;64927;48.214;16.378;2023-12-04T10:02:58;-0.60;68.60
76168;DHT22;64927;48.214;16.378;2023-12-04T10:05:25;-0.50;69.30
76168;DHT22;64927;48.214;16.378;2023-12-04T10:07:50;-0.50;69.40
76168;DHT22;64927;48.214;16.378;2023-12-04T10:10:16;-0.40;68.50
76168;DHT22;64927;48.214;16.378;2023-12-04T10:12:43;-0.20;68.60
76168;DHT22;64927;48.214;16.378;2023-12-04T10:15:12;0.00;68.70
76168;DHT22;64927;48.214;16.378;2023-12-04T10:17:39;0.20;68.70
76168;DHT22;64927;48.214;16.378;2023-12-04T10:22:51;0.60;68.70
76168;DHT22;64927;48.214;16.378;2023-12-04T10:25:18;0.80;68.40
76168;DHT22;64927;48.214;16.378;2023-12-04T10:27:44;1.00;67.80
76168;DHT22;64927;48.214;16.378;2023-12-04T10:30:22;1.00;68.20
76168;DHT22;64927;48.214;16.378;2023-12-04T10:32:48;1.00;68.50
76168;DHT22;64927;48.214;16.378;2023-12-04T10:35:14;0.70;68.80
76168;DHT22;64927;48.214;16.378;2023-12-04T10:37:41;0.70;69.80
76168;DHT22;64927;48.214;16.378;2023-12-04T10:40:07;0.90;69.60
76168;DHT22;64927;48.214;16.378;2023-12-04T10:42:34;1.00;69.10
76168;DHT22;64927;48.214;16.378;2023-12-04T10:45:00;1.00;69.20
76168;DHT22;64927;48.214;16.378;2023-12-04T10:47:29;1.20;69.40
76168;DHT22;64927;48.214;16.378;2023-12-04T10:49:58;1.40;69.20
76168;DHT22;64927;48.214;16.378;2023-12-04T10:52:23;1.60;68.80
76168;DHT22;64927;48.214;16.378;2023-12-04T10:54:50;1.70;68.20
76168;DHT22;64927;48.214;16.378;2023-12-04T10:57:30;1.90;67.70
76168;DHT22;64927;48.214;16.378;2023-12-04T11:00:02;2.00;67.80
76168;DHT22;64927;48.214;16.378;2023-12-04T11:02:34;2.00;67.50
76168;DHT22;64927;48.214;16.378;2023-12-04T11:05:07;2.00;67.70
76168;DHT22;64927;48.214;16.378;2023-12-04T11:07:41;2.10;67.50
76168;DHT22;64927;48.214;16.378;2023-12-04T11:10:12;2.10;67.50
76168;DHT22;64927;48.214;16.378;2023-12-04T11:12:41;2.00;67.40
76168;DHT22;64927;48.214;16.378;2023-12-04T11:15:10;2.20;67.90
76168;DHT22;64927;48.214;16.378;2023-12-04T11:17:43;2.40;67.10
76168;DHT22;64927;48.214;16.378;2023-12-04T11:20:24;2.40;67.10
76168;DHT22;64927;48.214;16.378;2023-12-04T11:22:58;2.60;66.80
76168;DHT22;64927;48.214;16.378;2023-12-04T11:25:25;2.90;66.00
76168;DHT22;64927;48.214;16.378;2023-12-04T11:27:52;3.00;64.20
76168;DHT22;64927;48.214;16.378;2023-12-04T11:30:21;2.90;64.40
76168;DHT22;64927;48.214;16.378;2023-12-04T11:32:49;2.90;64.00
76168;DHT22;64927;48.214;16.378;2023-12-04T11:35:15;2.90;64.30
76168;DHT22;64927;48.214;16.378;2023-12-04T11:37:43;3.00;64.30
76168;DHT22;64927;48.214;16.378;2023-12-04T11:40:15;2.80;63.70
76168;DHT22;64927;48.214;16.378;2023-12-04T11:42:41;2.90;63.20
76168;DHT22;64927;48.214;16.378;2023-12-04T11:45:07;2.90;64.20
76168;DHT22;64927;48.214;16.378;2023-12-04T11:47:56;3.10;64.10
76168;DHT22;64927;48.214;16.378;2023-12-04T11:50:25;3.10;62.50
76168;DHT22;64927;48.214;16.378;2023-12-04T11:52:50;3.10;62.70
76168;DHT22;64927;48.214;16.378;2023-12-04T11:55:26;3.20;62.00
76168;DHT22;64927;48.214;16.378;2023-12-04T11:57:54;3.30;62.00
76168;DHT22;64927;48.214;16.378;2023-12-04T12:00:23;3.30;61.30
76168;DHT22;64927;48.214;16.378;2023-12-04T12:05:23;3.40;60.90
76168;DHT22;64927;48.214;16.378;2023-12-04T12:07:49;3.20;60.40
76168;DHT22;64927;48.214;16.378;2023-12-04T12:10:16;3.30;60.20
76168;DHT22;64927;48.214;16.378;2023-12-04T12:12:45;3.40;59.40
76168;DHT22;64927;48.214;16.378;2023-12-04T12:15:13;3.30;59.50
76168;DHT22;64927;48.214;16.378;2023-12-04T12:17:40;3.40;59.30
76168;DHT22;64927;48.214;16.378;2023-12-04T12:20:11;3.40;59.20
76168;DHT22;64927;48.214;16.378;2023-12-04T12:22:37;3.50;58.80
76168;DHT22;64927;48.214;16.378;2023-12-04T12:25:08;3.50;57.60
76168;DHT22;64927;48.214;16.378;2023-12-04T12:27:37;3.50;58.20
76168;DHT22;64927;48.214;16.378;2023-12-04T12:30:03;3.60;57.60
76168;DHT22;64927;48.214;16.378;2023-12-04T12:32:31;3.60;57.70
76168;DHT22;64927;48.214;16.378;2023-12-04T12:34:56;3.50;58.30
76168;DHT22;64927;48.214;16.378;2023-12-04T12:37:25;3.40;58.30
76168;DHT22;64927;48.214;16.378;2023-12-04T12:39:51;3.50;59.00
76168;DHT22;64927;48.214;16.378;2023-12-04T12:42:29;3.60;58.80
76168;DHT22;64927;48.214;16.378;2023-12-04T12:44:55;3.60;58.20
76168;DHT22;64927;48.214;16.378;2023-12-04T12:47:25;3.60;58.30
76168;DHT22;64927;48.214;16.378;2023-12-04T12:49:54;3.60;57.80
76168;DHT22;64927;48.214;16.378;2023-12-04T12:52:19;3.50;59.30
76168;DHT22;64927;48.214;16.378;2023-12-04T12:54:45;3.40;58.80
76168;DHT22;64927;48.214;16.378;2023-12-04T12:57:11;3.30;58.90
76168;DHT22;64927;48.214;16.378;2023-12-04T12:59:38;3.30;59.80
76168;DHT22;64927;48.214;16.378;2023-12-04T13:02:05;3.20;59.70
76168;DHT22;64927;48.214;16.378;2023-12-04T13:04:41;3.10;59.00
76168;DHT22;64927;48.214;16.378;2023-12-04T13:07:07;3.10;59.30
76168;DHT22;64927;48.214;16.378;2023-12-04T13:09:37;3.20;60.20
76168;DHT22;64927;48.214;16.378;2023-12-04T13:12:06;3.20;59.80
76168;DHT22;64927;48.214;16.378;2023-12-04T13:14:34;3.20;59.50
76168;DHT22;64927;48.214;16.378;2023-12-04T13:17:01;3.10;59.90
76168;DHT22;64927;48.214;16.378;2023-12-04T13:19:27;3.10;59.80
76168;DHT22;64927;48.214;16.378;2023-12-04T13:21:52;3.10;60.30
76168;DHT22;64927;48.214;16.378;2023-12-04T13:24:18;3.00;60.60
76168;DHT22;64927;48.214;16.378;2023-12-04T13:26:46;3.10;60.50
76168;DHT22;64927;48.214;16.378;2023-12-04T13:29:12;3.10;60.40
76168;DHT22;64927;48.214;16.378;2023-12-04T13:31:42;3.00;61.00
76168;DHT22;64927;48.214;16.378;2023-12-04T13:34:08;3.00;60.90
76168;DHT22;64927;48.214;16.378;2023-12-04T13:36:34;3.00;60.80
76168;DHT22;64927;48.214;16.378;2023-12-04T13:39:01;3.00;60.80
76168;DHT22;64927;48.214;16.378;2023-12-04T13:41:28;3.10;60.70
76168;DHT22;64927;48.214;16.378;2023-12-04T13:44:12;3.10;60.60
76168;DHT22;64927;48.214;16.378;2023-12-04T13:46:39;3.00;61.20
76168;DHT22;64927;48.214;16.378;2023-12-04T13:49:05;3.10;60.50
76168;DHT22;64927;48.214;16.378;2023-12-04T13:51:31;3.10;60.80
76168;DHT22;64927;48.214;16.378;2023-12-04T13:53:56;3.10;60.20
76168;DHT22;64927;48.214;16.378;2023-12-04T13:56:28;3.10;60.20
76168;DHT22;64927;48.214;16.378;2023-12-04T13:59:09;3.10;60.50
76168;DHT22;64927;48.214;16.378;2023-12-04T14:01:44;3.20;59.90
76168;DHT22;64927;48.214;16.378;2023-12-04T14:04:12;3.00;59.70
76168;DHT22;64927;48.214;16.378;2023-12-04T14:06:38;2.90;60.00
76168;DHT22;64927;48.214;16.378;2023-12-04T14:09:04;3.00;60.40
76168;DHT22;64927;48.214;16.378;2023-12-04T14:11:49;2.90;61.00
76168;DHT22;64927;48.214;16.378;2023-12-04T14:14:15;3.00;60.50
76168;DHT22;64927;48.214;16.378;2023-12-04T14:16:41;3.00;60.90
76168;DHT22;64927;48.214;16.378;2023-12-04T14:19:07;2.90;61.40
76168;DHT22;64927;48.214;16.378;2023-12-04T14:21:33;2.90;61.70
76168;DHT22;64927;48.214;16.378;2023-12-04T14:23:58;2.80;60.90
76168;DHT22;64927;48.214;16.378;2023-12-04T14:26:25;2.80;61.60
76168;DHT22;64927;48.214;16.378;2023-12-04T14:28:51;2.70;60.90
76168;DHT22;64927;48.214;16.378;2023-12-04T14:31:16;2.70;62.00
76168;DHT22;64927;48.214;16.378;2023-12-04T14:33:42;2.70;61.40
76168;DHT22;64927;48.214;16.378;2023-12-04T14:36:08;2.70;61.50
76168;DHT22;64927;48.214;16.378;2023-12-04T14:38:36;2.70;61.80
76168;DHT22;64927;48.214;16.378;2023-12-04T14:41:03;2.70;62.00
76168;DHT22;64927;48.214;16.378;2023-12-04T14:43:29;2.70;62.10
76168;DHT22;64927;48.214;16.378;2023-12-04T14:45:58;2.80;61.70
76168;DHT22;64927;48.214;16.378;2023-12-04T14:48:23;2.80;62.00
76168;DHT22;64927;48.214;16.378;2023-12-04T14:50:49;2.90;61.90
76168;DHT22;64927;48.214;16.378;2023-12-04T14:53:15;2.80;61.60
76168;DHT22;64927;48.214;16.378;2023-12-04T14:55:44;2.90;61.80
76168;DHT22;64927;48.214;16.378;2023-12-04T14:58:28;2.80;62.00
76168;DHT22;64927;48.214;16.378;2023-12-04T15:01:08;2.70;62.50
76168;DHT22;64927;48.214;16.378;2023-12-04T15:03:53;2.70;62.20
76168;DHT22;64927;48.214;16.378;2023-12-04T15:06:38;2.70;62.50
76168;DHT22;64927;48.214;16.378;2023-12-04T15:09:26;2.60;62.90
76168;DHT22;64927;48.214;16.378;2023-12-04T15:11:54;2.60;63.10
76168;DHT22;64927;48.214;16.378;2023-12-04T15:14:29;2.70;62.80
76168;DHT22;64927;48.214;16.378;2023-12-04T15:17:03;2.60;62.60
76168;DHT22;64927;48.214;16.378;2023-12-04T15:19:44;2.50;62.90
76168;DHT22;64927;48.214;16.378;2023-12-04T15:22:42;2.40;62.70
76168;DHT22;64927;48.214;16.378;2023-12-04T15:25:08;2.50;62.40
76168;DHT22;64927;48.214;16.378;2023-12-04T15:27:37;2.50;62.20
76168;DHT22;64927;48.214;16.378;2023-12-04T15:30:03;2.60;62.30